Time;durP1;ratioP1;P1;durP2;ratioP2;P2;SDS_P1;SDS_P2;PMS_P1;PMS_P2;Temp;Humidity;BMP_temperature;BMP_pressure;BME280_temperature;BME280_humidity;BME280_pressure;Samples;Min_cycle;Max_cycle;Signal;HPM_P1;HPM_P2
2022/03/05 00:00:01;;;;;;;0.30;0.30;;;0.60;68.40;;;;;;5016102;28;20447;-83
2022/03/05 00:02:27;;;;;;;0.40;0.40;;;0.50;68.50;;;;;;5016012;28;20433;-84
2022/03/05 00:04:54;;;;;;;0.30;0.30;;;0.50;68.40;;;;;;5016000;28;20459;-84
2022/03/05 00:07:21;;;;;;;0.83;0.83;;;0.50;68.50;;;;;;5015513;28;20987;-83
2022/03/05 00:09:48;;;;;;;0.60;0.60;;;0.50;68.40;;;;;;5015551;28;20471;-84
2022/03/05 00:12:16;;;;;;;0.40;0.40;;;0.50;69.10;;;;;;5015929;28;20452;-84
2022/03/05 00:14:43;;;;;;;0.30;0.30;;;0.40;68.70;;;;;;5015536;28;20943;-84
2022/03/05 00:17:10;;;;;;;0.40;0.40;;;0.40;68.90;;;;;;5015966;28;20514;-84
2022/03/05 00:19:36;;;;;;;0.30;0.30;;;0.40;69.20;;;;;;5015649;28;20495;-83
2022/03/05 00:22:04;;;;;;;0.40;0.40;;;0.30;69.30;;;;;;5015343;28;20455;-83
2022/03/05 00:24:30;;;;;;;0.30;0.30;;;0.30;69.50;;;;;;5015752;28;20451;-83
2022/03/05 00:26:57;;;;;;;0.30;0.30;;;0.20;69.90;;;;;;5015541;28;20490;-83
2022/03/05 00:29:25;;;;;;;0.50;0.50;;;0.30;70.50;;;;;;5015560;28;20533;-84
2022/03/05 00:31:52;;;;;;;0.30;0.30;;;0.20;70.20;;;;;;5013986;28;20537;-85
2022/03/05 00:34:19;;;;;;;0.30;0.30;;;0.10;70.10;;;;;;5016903;28;20789;-83
2022/03/05 00:36:46;;;;;;;0.30;0.30;;;0.20;69.80;;;;;;5015305;28;20947;-83
2022/03/05 00:39:13;;;;;;;0.63;0.63;;;0.20;70.00;;;;;;5014997;28;20843;-83
2022/03/05 00:41:39;;;;;;;0.30;0.30;;;0.20;69.50;;;;;;5015254;28;20837;-83
2022/03/05 00:44:06;;;;;;;0.30;0.30;;;0.20;69.20;;;;;;5015166;28;20447;-83
2022/03/05 00:46:34;;;;;;;0.40;0.30;;;0.20;69.10;;;;;;5014848;28;20455;-83
2022/03/05 00:49:01;;;;;;;1.57;0.73;;;0.20;68.80;;;;;;5015302;28;20467;-82
2022/03/05 00:51:28;;;;;;;0.57;0.57;;;0.20;68.90;;;;;;5015143;28;20443;-83
2022/03/05 00:53:55;;;;;;;0.40;0.40;;;0.20;69.10;;;;;;5015110;28;20811;-83
2022/03/05 00:56:21;;;;;;;0.60;0.60;;;0.10;68.70;;;;;;5014985;28;20455;-83
2022/03/05 00:58:48;;;;;;;0.40;0.40;;;0.10;69.10;;;;;;5014520;28;20976;-82
2022/03/05 01:01:15;;;;;;;0.30;0.30;;;0.00;69.50;;;;;;5014865;28;20448;-83
2022/03/05 01:03:43;;;;;;;1.10;1.00;;;0.10;69.30;;;;;;5014846;28;20459;-83
2022/03/05 01:06:10;;;;;;;1.27;1.17;;;0.00;69.70;;;;;;5014907;28;20793;-82
2022/03/05 01:08:36;;;;;;;0.30;0.30;;;0.00;69.80;;;;;;5014613;28;20490;-83
2022/03/05 01:11:04;;;;;;;0.40;0.40;;;0.00;70.30;;;;;;5014416;28;20910;-84
2022/03/05 01:13:30;;;;;;;0.30;0.30;;;-0.10;70.30;;;;;;5014439;28;20451;-82
2022/03/05 01:15:57;;;;;;;0.97;0.97;;;-0.10;70.80;;;;;;5014680;28;20436;-83
2022/03/05 01:18:24;;;;;;;0.63;0.63;;;-0.10;70.20;;;;;;5014605;28;20475;-83
2022/03/05 01:20:52;;;;;;;0.30;0.30;;;-0.10;70.00;;;;;;5014346;28;20447;-83
2022/03/05 01:23:19;;;;;;;0.30;0.30;;;-0.10;70.10;;;;;;5014592;28;20450;-83
2022/03/05 01:25:46;;;;;;;0.30;0.30;;;-0.10;70.00;;;;;;5014257;28;20447;-83
2022/03/05 01:28:12;;;;;;;0.30;0.30;;;-0.10;70.00;;;;;;5015258;28;20491;-82
2022/03/05 01:30:39;;;;;;;3.30;1.03;;;-0.10;69.50;;;;;;5014095;28;20478;-83
2022/03/05 01:33:06;;;;;;;0.30;0.30;;;-0.10;69.90;;;;;;5014466;28;20428;-83
2022/03/05 01:35:33;;;;;;;0.40;0.40;;;-0.20;70.20;;;;;;5014458;28;20428;-83
2022/03/05 01:38:01;;;;;;;0.30;0.30;;;-0.20;70.40;;;;;;5015004;28;20467;-83
2022/03/05 01:40:28;;;;;;;0.73;0.73;;;-0.20;70.20;;;;;;5014047;28;20829;-83
2022/03/05 01:42:55;;;;;;;0.30;0.23;;;-0.30;70.30;;;;;;5013575;28;20455;-82
2022/03/05 01:45:22;;;;;;;0.30;0.30;;;-0.30;71.10;;;;;;5014860;28;20487;-82
2022/03/05 01:47:48;;;;;;;0.30;0.30;;;-0.20;71.20;;;;;;5014410;28;20506;-82
2022/03/05 01:50:15;;;;;;;0.47;0.47;;;-0.20;70.10;;;;;;5014466;28;20451;-82
2022/03/05 01:52:43;;;;;;;0.30;0.30;;;-0.20;70.70;;;;;;5014423;28;20530;-82
2022/03/05 01:55:13;;;;;;;0.30;0.30;;;-0.30;70.60;;;;;;5014179;28;20447;-83
2022/03/05 01:57:40;;;;;;;1.10;1.10;;;-0.30;70.40;;;;;;5014310;28;20927;-82
2022/03/05 02:00:10;;;;;;;0.30;0.30;;;-0.30;70.90;;;;;;5014209;28;20443;-82
2022/03/05 02:02:36;;;;;;;0.50;0.50;;;-0.20;70.40;;;;;;5014147;28;20459;-82
2022/03/05 02:05:04;;;;;;;0.30;0.20;;;-0.20;71.20;;;;;;5013892;28;20454;-83
2022/03/05 02:07:31;;;;;;;3.13;1.30;;;-0.30;72.00;;;;;;5013820;28;20501;-83
2022/03/05 02:09:58;;;;;;;0.50;0.50;;;-0.30;72.30;;;;;;5013859;28;20828;-83
2022/03/05 02:12:29;;;;;;;0.30;0.30;;;-0.30;71.60;;;;;;5013909;28;20459;-83
2022/03/05 02:14:56;;;;;;;0.87;0.87;;;-0.30;71.80;;;;;;5013563;28;20443;-82
2022/03/05 02:17:23;;;;;;;1.43;1.33;;;-0.40;72.10;;;;;;5013840;28;20954;-83
2022/03/05 02:19:50;;;;;;;0.30;0.30;;;-0.40;73.00;;;;;;5013468;28;20462;-82
2022/03/05 02:22:18;;;;;;;0.30;0.30;;;-0.40;74.50;;;;;;5013485;28;20444;-83
2022/03/05 02:24:45;;;;;;;0.60;0.60;;;-0.40;73.70;;;;;;5013529;28;20448;-83
2022/03/05 02:27:11;;;;;;;0.30;0.30;;;-0.50;73.80;;;;;;5013549;28;20427;-82
2022/03/05 02:29:39;;;;;;;0.30;0.30;;;-0.50;73.00;;;;;;5013563;28;20474;-83
2022/03/05 02:32:07;;;;;;;0.30;0.30;;;-0.50;73.50;;;;;;5013546;28;20461;-83
2022/03/05 02:34:34;;;;;;;0.30;0.30;;;-0.50;74.30;;;;;;5013591;28;20452;-82
2022/03/05 02:37:01;;;;;;;0.40;0.40;;;-0.50;74.00;;;;;;5013411;28;20450;-82
2022/03/05 02:39:29;;;;;;;0.30;0.30;;;-0.50;73.90;;;;;;5013666;28;20471;-82
2022/03/05 02:41:56;;;;;;;1.13;1.03;;;-0.50;74.60;;;;;;5013969;28;20432;-82
2022/03/05 02:44:24;;;;;;;0.30;0.20;;;-0.50;74.50;;;;;;5013325;28;20935;-83
2022/03/05 02:46:51;;;;;;;0.40;0.40;;;-0.50;75.50;;;;;;5013578;28;20814;-82
2022/03/05 02:49:18;;;;;;;2.43;0.87;;;-0.50;76.20;;;;;;5013651;28;20504;-82
2022/03/05 02:51:45;;;;;;;0.30;0.30;;;-0.50;75.90;;;;;;5014112;28;20487;-82
2022/03/05 02:54:12;;;;;;;0.30;0.30;;;-0.60;76.50;;;;;;5017498;28;20471;-84
2022/03/05 02:56:40;;;;;;;0.30;0.30;;;-0.60;77.70;;;;;;5020628;28;20806;-83
2022/03/05 02:59:07;;;;;;;0.50;0.50;;;-0.70;78.40;;;;;;5023317;28;20442;-85
2022/03/05 03:01:34;;;;;;;0.67;0.53;;;-0.70;78.90;;;;;;5021287;28;20833;-82
2022/03/05 03:04:01;;;;;;;0.73;0.73;;;-0.80;79.40;;;;;;5019542;28;20443;-82
2022/03/05 03:06:27;;;;;;;0.63;0.50;;;-0.80;79.70;;;;;;5018901;28;20458;-82
2022/03/05 03:08:54;;;;;;;1.23;1.07;;;-0.80;79.70;;;;;;5018021;28;20483;-82
2022/03/05 03:11:21;;;;;;;0.30;0.30;;;-0.90;79.60;;;;;;5018572;28;20455;-83
2022/03/05 03:13:49;;;;;;;0.50;0.50;;;-0.90;81.30;;;;;;5018752;28;20447;-82
2022/03/05 03:16:16;;;;;;;0.30;0.30;;;-1.00;81.10;;;;;;5018048;28;20870;-82
2022/03/05 03:18:43;;;;;;;1.40;0.70;;;-1.00;80.30;;;;;;5018581;28;20447;-82
2022/03/05 03:21:10;;;;;;;0.40;0.40;;;-1.00;79.20;;;;;;5018570;28;20439;-82
2022/03/05 03:23:37;;;;;;;2.33;2.20;;;-0.90;80.00;;;;;;5018911;28;20813;-82
2022/03/05 03:26:04;;;;;;;0.77;0.50;;;-1.00;81.10;;;;;;5019290;28;20451;-82
2022/03/05 03:28:31;;;;;;;0.30;0.30;;;-1.00;81.30;;;;;;5018942;28;20492;-81
2022/03/05 03:30:59;;;;;;;0.40;0.40;;;-1.00;82.70;;;;;;5018748;28;20463;-82
2022/03/05 03:33:25;;;;;;;0.30;0.30;;;-1.00;83.30;;;;;;5019409;28;20440;-82
2022/03/05 03:35:52;;;;;;;0.30;0.30;;;-1.00;83.20;;;;;;5020059;28;20460;-81
2022/03/05 03:38:19;;;;;;;0.30;0.30;;;-1.00;84.30;;;;;;5018379;28;20847;-82
2022/03/05 03:40:46;;;;;;;0.70;0.70;;;-0.90;84.20;;;;;;5018813;28;20455;-82
2022/03/05 03:43:13;;;;;;;0.30;0.30;;;-1.00;84.40;;;;;;5018322;28;20426;-82
2022/03/05 03:45:39;;;;;;;0.30;0.20;;;-1.00;84.20;;;;;;5018003;28;20447;-82
2022/03/05 03:48:08;;;;;;;0.30;0.30;;;-0.90;85.60;;;;;;5017998;28;20487;-82
2022/03/05 03:50:35;;;;;;;0.33;0.33;;;-1.00;85.00;;;;;;5018035;28;20990;-82
2022/03/05 03:53:02;;;;;;;0.30;0.30;;;-1.00;84.80;;;;;;5018590;28;20501;-82
2022/03/05 03:55:29;;;;;;;0.50;0.50;;;-1.10;85.50;;;;;;5018660;28;20797;-82
2022/03/05 03:57:56;;;;;;;0.40;0.40;;;-1.10;86.30;;;;;;5018352;28;20463;-82
2022/03/05 04:00:23;;;;;;;1.57;1.47;;;-1.10;86.00;;;;;;5018069;28;20459;-82
2022/03/05 04:02:50;;;;;;;1.23;0.50;;;-1.10;84.90;;;;;;5017921;28;20501;-82
2022/03/05 04:05:18;;;;;;;0.30;0.30;;;-1.10;84.10;;;;;;5018331;28;20443;-81
2022/03/05 04:10:29;;;;;;;0.30;0.30;;;-1.00;83.90;;;;;;5022634;28;20476;-81
2022/03/05 04:12:56;;;;;;;0.30;0.30;;;-0.90;83.90;;;;;;5020339;28;20447;-82
2022/03/05 04:15:24;;;;;;;0.50;0.50;;;-1.00;84.60;;;;;;5021599;28;20440;-81
2022/03/05 04:17:51;;;;;;;0.47;0.47;;;-1.10;86.10;;;;;;5021527;28;20456;-81
2022/03/05 04:20:19;;;;;;;0.30;0.20;;;-1.20;87.60;;;;;;5022081;28;20920;-82
2022/03/05 04:22:46;;;;;;;0.30;0.30;;;-1.20;88.10;;;;;;5023524;28;20433;-82
2022/03/05 04:25:13;;;;;;;0.30;0.30;;;-1.30;88.10;;;;;;5023145;28;20418;-81
2022/03/05 04:27:40;;;;;;;0.40;0.40;;;-1.30;87.60;;;;;;5022961;28;20498;-81
2022/03/05 04:30:08;;;;;;;0.30;0.30;;;-1.30;88.60;;;;;;5022129;28;20468;-82
2022/03/05 04:32:35;;;;;;;0.40;0.40;;;-1.30;89.40;;;;;;5022897;28;20479;-82
2022/03/05 04:35:03;;;;;;;1.17;0.40;;;-1.30;90.00;;;;;;5021891;28;20463;-81
2022/03/05 04:37:31;;;;;;;0.40;0.40;;;-1.40;89.80;;;;;;5024532;28;20459;-82
2022/03/05 04:39:58;;;;;;;0.30;0.30;;;-1.30;91.20;;;;;;5024462;28;20475;-81
2022/03/05 04:42:24;;;;;;;0.30;0.30;;;-1.30;90.70;;;;;;5025363;28;20459;-82
2022/03/05 04:44:51;;;;;;;0.30;0.30;;;-1.40;91.10;;;;;;5025880;28;20447;-81
2022/03/05 04:47:18;;;;;;;0.30;0.30;;;-1.40;91.30;;;;;;5024819;28;20414;-82
2022/03/05 04:49:45;;;;;;;0.40;0.40;;;-1.40;91.80;;;;;;5024625;28;20494;-81
2022/03/05 04:52:11;;;;;;;0.30;0.30;;;-1.40;91.60;;;;;;5023562;28;20421;-82
2022/03/05 04:54:40;;;;;;;0.40;0.40;;;-1.40;91.20;;;;;;5023608;28;20451;-82
2022/03/05 04:57:07;;;;;;;0.30;0.30;;;-1.40;91.30;;;;;;5022471;28;20454;-81
2022/03/05 04:59:33;;;;;;;0.40;0.40;;;-1.40;92.00;;;;;;5024082;28;20446;-82
2022/03/05 05:02:00;;;;;;;0.50;0.50;;;-1.50;92.50;;;;;;5023675;28;20422;-80
2022/03/05 05:04:27;;;;;;;0.40;0.40;;;-1.40;93.00;;;;;;5024998;28;20451;-82
2022/03/05 05:06:54;;;;;;;0.30;0.30;;;-1.40;92.60;;;;;;5027889;28;20778;-81
2022/03/05 05:09:21;;;;;;;0.30;0.20;;;-1.40;92.20;;;;;;5027943;28;20483;-81
2022/03/05 05:11:49;;;;;;;0.40;0.40;;;-1.40;93.00;;;;;;5026811;28;20447;-81
2022/03/05 05:14:16;;;;;;;0.30;0.30;;;-1.50;92.40;;;;;;5029688;28;20447;-81
2022/03/05 05:16:43;;;;;;;0.30;0.30;;;-1.60;93.40;;;;;;5032555;28;20494;-81
2022/03/05 05:19:25;;;;;;;0.30;0.30;;;-1.50;93.70;;;;;;5033376;28;20523;-81
2022/03/05 05:21:53;;;;;;;0.30;0.30;;;-1.50;93.90;;;;;;5037619;28;20403;-81
2022/03/05 05:24:19;;;;;;;1.80;1.80;;;-1.60;94.70;;;;;;5034500;28;20429;-81
2022/03/05 05:26:46;;;;;;;0.50;0.50;;;-1.70;95.20;;;;;;5034187;28;20438;-81
2022/03/05 05:29:15;;;;;;;0.40;0.40;;;-1.70;95.30;;;;;;5034090;28;20490;-81
2022/03/05 05:31:42;;;;;;;0.40;0.40;;;-1.70;96.30;;;;;;5033834;28;21065;-81
2022/03/05 05:34:08;;;;;;;0.50;0.50;;;-1.70;97.10;;;;;;5034431;28;20439;-81
2022/03/05 05:36:38;;;;;;;0.30;0.30;;;-1.80;96.80;;;;;;5034969;28;20961;-81
2022/03/05 05:39:05;;;;;;;0.30;0.20;;;-1.80;97.50;;;;;;5035365;28;20535;-80
2022/03/05 05:41:32;;;;;;;0.40;0.40;;;-1.80;97.00;;;;;;5037316;28;20443;-81
2022/03/05 05:43:59;;;;;;;0.30;0.30;;;-1.80;96.30;;;;;;5037945;28;20398;-81
2022/03/05 05:46:27;;;;;;;0.30;0.30;;;-1.90;97.50;;;;;;5038232;28;20417;-82
2022/03/05 05:48:54;;;;;;;0.93;0.90;;;-1.90;98.30;;;;;;5037233;28;20513;-81
2022/03/05 05:51:21;;;;;;;0.50;0.50;;;-2.00;99.10;;;;;;5038319;28;20447;-81
2022/03/05 05:53:48;;;;;;;0.30;0.30;;;-2.00;99.10;;;;;;5037907;28;20518;-82
2022/03/05 05:56:15;;;;;;;0.30;0.30;;;-2.00;99.50;;;;;;5038053;28;20547;-81
2022/03/05 05:58:42;;;;;;;0.30;0.30;;;-2.00;99.80;;;;;;5037824;28;20518;-81
2022/03/05 06:01:08;;;;;;;6.80;1.20;;;-2.00;99.60;;;;;;5038374;28;20511;-81
2022/03/05 06:06:59;;;;;;;0.73;0.73;;;-1.90;99.90;;;;;;5724389;22;20467;-81
2022/03/05 06:09:26;;;;;;;0.30;0.30;;;-1.90;99.90;;;;;;5054914;28;20489;-81
2022/03/05 06:11:53;;;;;;;1.90;1.80;;;-1.90;99.90;;;;;;5055097;28;20438;-81
2022/03/05 06:14:20;;;;;;;0.30;0.30;;;-1.90;99.90;;;;;;5054851;28;20469;-81
2022/03/05 06:16:47;;;;;;;0.63;0.63;;;-1.90;99.90;;;;;;5054334;28;20467;-81
2022/03/05 06:19:13;;;;;;;0.30;0.23;;;-1.80;99.90;;;;;;5054409;28;20573;-80
2022/03/05 06:21:40;;;;;;;0.40;0.40;;;-1.80;99.90;;;;;;5052631;28;20873;-80
2022/03/05 06:24:08;;;;;;;0.50;0.50;;;-1.70;99.80;;;;;;5049816;28;20514;-81
2022/03/05 06:26:35;;;;;;;0.30;0.30;;;-1.60;99.90;;;;;;5042549;28;20799;-81
2022/03/05 06:29:04;;;;;;;0.80;0.80;;;-1.60;99.90;;;;;;5040429;28;20490;-81
2022/03/05 06:31:30;;;;;;;0.30;0.30;;;-1.50;99.90;;;;;;5041915;28;20446;-81
2022/03/05 06:33:57;;;;;;;0.30;0.30;;;-1.50;99.90;;;;;;5041798;28;20558;-81
2022/03/05 06:36:24;;;;;;;0.30;0.30;;;-1.50;99.90;;;;;;5041978;28;20462;-81
2022/03/05 06:38:51;;;;;;;0.40;0.40;;;-1.40;99.90;;;;;;5043018;28;20467;-81
2022/03/05 06:41:19;;;;;;;0.30;0.30;;;-1.40;99.90;;;;;;5042479;28;20457;-82
2022/03/05 06:44:39;;;;;;;0.30;0.30;;;-1.40;99.90;;;;;;5043569;28;20453;-81
2022/03/05 06:47:07;;;;;;;0.30;0.30;;;-1.40;99.90;;;;;;5049253;28;20488;-81
2022/03/05 06:49:33;;;;;;;0.73;0.73;;;-1.40;99.90;;;;;;5046474;28;20463;-81
2022/03/05 06:52:00;;;;;;;0.80;0.60;;;-1.40;99.90;;;;;;5045509;28;20537;-82
2022/03/05 06:54:27;;;;;;;0.30;0.30;;;-1.50;99.90;;;;;;5045792;28;20480;-80
2022/03/05 06:56:55;;;;;;;0.30;0.30;;;-1.40;99.90;;;;;;5047088;28;20426;-81
2022/03/05 06:59:22;;;;;;;1.00;1.00;;;-1.30;99.90;;;;;;5044691;28;20473;-81
2022/03/05 07:01:49;;;;;;;0.30;0.30;;;-1.30;99.90;;;;;;5042985;28;20537;-81
2022/03/05 07:04:15;;;;;;;0.30;0.30;;;-1.10;99.90;;;;;;5045041;28;20450;-81
2022/03/05 07:06:42;;;;;;;0.30;0.30;;;-1.00;99.90;;;;;;5045874;28;20457;-80
2022/03/05 07:09:09;;;;;;;0.30;0.30;;;-1.00;99.90;;;;;;5044360;28;20485;-81
2022/03/05 07:11:36;;;;;;;1.57;0.83;;;-1.00;99.90;;;;;;5041427;28;20460;-82
2022/03/05 07:14:04;;;;;;;0.30;0.30;;;-0.80;99.90;;;;;;5042347;28;20429;-82
2022/03/05 07:16:31;;;;;;;0.90;0.90;;;-0.70;99.90;;;;;;5041853;28;20443;-82
2022/03/05 07:19:04;;;;;;;0.30;0.30;;;-0.60;99.90;;;;;;5040655;28;20509;-82
2022/03/05 07:21:31;;;;;;;0.60;0.60;;;-0.50;99.90;;;;;;5041257;28;20493;-81
2022/03/05 07:23:58;;;;;;;0.30;0.30;;;-0.50;99.90;;;;;;5039227;28;20825;-81
2022/03/05 07:26:25;;;;;;;0.50;0.50;;;-0.50;99.90;;;;;;5039232;28;20435;-81
2022/03/05 07:28:52;;;;;;;0.67;0.67;;;-0.30;99.90;;;;;;5039175;28;20829;-81
2022/03/05 07:31:20;;;;;;;0.40;0.40;;;-0.20;99.90;;;;;;5039050;28;20433;-82
2022/03/05 07:33:47;;;;;;;0.60;0.60;;;-0.10;99.90;;;;;;5038828;28;20792;-81
2022/03/05 07:36:14;;;;;;;1.00;1.00;;;0.00;99.90;;;;;;5043777;28;20442;-82
2022/03/05 07:38:44;;;;;;;0.40;0.40;;;0.20;99.90;;;;;;5042547;28;20841;-81
2022/03/05 07:44:33;;;;;;;0.30;0.30;;;0.20;99.90;;;;;;5047217;28;20378;-81
2022/03/05 07:47:01;;;;;;;0.30;0.20;;;0.40;99.70;;;;;;5040918;28;20427;-82
2022/03/05 07:49:28;;;;;;;0.30;0.30;;;0.40;99.80;;;;;;5038331;28;21012;-81
2022/03/05 07:51:56;;;;;;;0.80;0.80;;;0.40;99.90;;;;;;5043828;28;20435;-81
2022/03/05 07:54:23;;;;;;;0.50;0.50;;;0.50;99.50;;;;;;5040513;28;20809;-79
2022/03/05 07:56:50;;;;;;;1.83;0.97;;;0.70;99.10;;;;;;5045152;28;20427;-82
2022/03/05 07:59:17;;;;;;;0.30;0.30;;;0.70;98.70;;;;;;5039284;28;20497;-81
2022/03/05 08:01:44;;;;;;;0.60;0.50;;;0.70;98.80;;;;;;5038378;28;20417;-82
2022/03/05 08:04:12;;;;;;;0.50;0.50;;;0.80;98.90;;;;;;5039169;28;20801;-82
2022/03/05 08:06:39;;;;;;;0.40;0.40;;;0.90;98.70;;;;;;5038023;28;20447;-81
2022/03/05 08:09:06;;;;;;;0.87;0.57;;;1.00;98.50;;;;;;5037111;28;20462;-81
2022/03/05 08:11:33;;;;;;;0.30;0.30;;;1.10;98.10;;;;;;5035998;28;20965;-82
2022/03/05 08:14:00;;;;;;;0.50;0.37;;;1.20;97.80;;;;;;5036174;28;20457;-82
2022/03/05 08:16:27;;;;;;;0.70;0.70;;;1.30;97.40;;;;;;5036073;28;20457;-82
2022/03/05 08:18:54;;;;;;;1.37;1.33;;;1.30;97.80;;;;;;5036041;28;20994;-82
2022/03/05 08:21:22;;;;;;;3.70;1.43;;;1.40;97.40;;;;;;5036383;28;20450;-82
2022/03/05 08:23:49;;;;;;;0.60;0.60;;;1.40;97.00;;;;;;5035596;28;20489;-83
2022/03/05 08:26:15;;;;;;;0.40;0.40;;;1.50;97.40;;;;;;5035603;28;20422;-83
2022/03/05 08:28:43;;;;;;;0.70;0.70;;;1.60;96.70;;;;;;5038447;28;20466;-83
2022/03/05 08:31:09;;;;;;;0.87;0.87;;;1.80;95.90;;;;;;5038307;28;20482;-83
2022/03/05 08:33:36;;;;;;;0.30;0.30;;;1.80;96.10;;;;;;5038812;28;20492;-83
2022/03/05 08:36:03;;;;;;;0.30;0.30;;;2.00;95.70;;;;;;5036037;28;20965;-83
2022/03/05 08:38:33;;;;;;;0.43;0.43;;;2.10;95.30;;;;;;5035606;28;20470;-84
2022/03/05 08:41:00;;;;;;;0.30;0.30;;;2.30;95.00;;;;;;5035463;28;20417;-83
2022/03/05 08:43:27;;;;;;;0.93;0.93;;;2.50;94.60;;;;;;5035509;28;20913;-84
2022/03/05 08:45:54;;;;;;;1.57;1.57;;;2.70;93.20;;;;;;5035071;28;20953;-84
2022/03/05 08:48:21;;;;;;;0.30;0.30;;;2.90;92.50;;;;;;5035028;28;20479;-84
2022/03/05 08:50:48;;;;;;;0.40;0.40;;;3.10;92.50;;;;;;5035521;28;20529;-84
2022/03/05 08:53:15;;;;;;;0.30;0.30;;;3.20;92.30;;;;;;5033874;28;20446;-85
2022/03/05 08:55:43;;;;;;;0.30;0.30;;;3.40;91.30;;;;;;5034831;28;20465;-85
2022/03/05 08:58:10;;;;;;;1.37;1.27;;;3.50;91.00;;;;;;5034505;28;20474;-85
2022/03/05 09:00:37;;;;;;;0.30;0.30;;;3.60;90.60;;;;;;5035099;28;20467;-85
2022/03/05 09:03:04;;;;;;;0.30;0.30;;;3.50;89.20;;;;;;5034918;28;20439;-86
2022/03/05 09:05:31;;;;;;;0.40;0.40;;;3.70;89.90;;;;;;5034591;28;20926;-86
2022/03/05 09:07:57;;;;;;;0.30;0.30;;;4.10;89.70;;;;;;5034403;28;20498;-87
2022/03/05 09:10:24;;;;;;;0.40;0.40;;;4.80;87.90;;;;;;5034490;28;20486;-86
2022/03/05 09:12:52;;;;;;;0.30;0.30;;;5.70;82.70;;;;;;5034504;28;20431;-87
2022/03/05 09:15:19;;;;;;;0.60;0.60;;;6.70;80.30;;;;;;5034564;28;20435;-88
2022/03/05 09:17:46;;;;;;;0.40;0.30;;;7.40;73.70;;;;;;5034493;28;20438;-86
2022/03/05 09:20:13;;;;;;;0.30;0.30;;;8.10;70.80;;;;;;5035130;28;20910;-85
2022/03/05 09:22:39;;;;;;;0.97;0.40;;;8.70;66.90;;;;;;5034307;28;20933;-86
2022/03/05 09:25:08;;;;;;;1.43;0.90;;;9.70;62.10;;;;;;5034601;28;20895;-86
2022/03/05 09:27:35;;;;;;;0.77;0.67;;;10.00;57.60;;;;;;5035415;28;20431;-85
2022/03/05 09:30:05;;;;;;;0.40;0.30;;;11.00;56.50;;;;;;5034738;28;20470;-85
2022/03/05 09:32:32;;;;;;;0.40;0.37;;;12.10;53.50;;;;;;5034194;28;20763;-84
2022/03/05 09:35:00;;;;;;;2.10;0.80;;;12.60;51.40;;;;;;5034149;28;20447;-84
2022/03/05 09:37:28;;;;;;;4.07;1.30;;;13.20;49.40;;;;;;5034580;28;20443;-84
2022/03/05 09:39:54;;;;;;;0.40;0.40;;;12.80;47.80;;;;;;5034228;28;20680;-84
2022/03/05 09:42:21;;;;;;;1.23;0.80;;;12.70;47.70;;;;;;5034236;28;20419;-82
2022/03/05 09:44:48;;;;;;;0.70;0.63;;;13.30;47.20;;;;;;5034095;28;20421;-82
2022/03/05 09:47:17;;;;;;;2.70;1.00;;;13.80;44.90;;;;;;5034801;28;20435;-82
2022/03/05 09:49:44;;;;;;;1.67;0.60;;;14.50;44.80;;;;;;5034049;28;20485;-81
2022/03/05 09:52:11;;;;;;;1.40;0.97;;;14.50;42.90;;;;;;5034137;28;20412;-81
2022/03/05 09:54:38;;;;;;;1.17;1.07;;;14.50;43.00;;;;;;5034413;28;20441;-81
2022/03/05 09:57:10;;;;;;;3.63;2.10;;;14.50;43.00;;;;;;5034312;28;20430;-82
2022/03/05 09:59:37;;;;;;;1.80;0.63;;;14.70;41.90;;;;;;5034113;28;20509;-82
2022/03/05 10:02:05;;;;;;;1.00;0.80;;;14.40;40.60;;;;;;5035135;28;20570;-82
2022/03/05 10:04:34;;;;;;;1.30;1.13;;;14.10;41.50;;;;;;5033985;28;20435;-82
2022/03/05 10:07:08;;;;;;;1.53;0.70;;;13.60;41.70;;;;;;5033914;28;20485;-82
2022/03/05 10:09:36;;;;;;;2.40;1.37;;;13.10;43.50;;;;;;5033863;28;20492;-83
2022/03/05 10:12:10;;;;;;;2.13;1.20;;;12.50;43.30;;;;;;5033868;28;20412;-84
2022/03/05 10:14:38;;;;;;;1.00;0.83;;;11.90;44.10;;;;;;5034145;28;20431;-83
2022/03/05 10:17:04;;;;;;;0.80;0.80;;;12.10;44.90;;;;;;5034734;28;20443;-83
2022/03/05 10:19:32;;;;;;;0.50;0.50;;;12.50;45.40;;;;;;5034157;28;20470;-83
2022/03/05 10:22:03;;;;;;;0.90;0.90;;;12.80;43.20;;;;;;5034025;28;20435;-79
2022/03/05 10:24:34;;;;;;;0.50;0.50;;;12.40;44.00;;;;;;5033876;28;20431;-85
2022/03/05 10:27:01;;;;;;;1.27;0.70;;;12.10;43.30;;;;;;5034366;28;20454;-84
2022/03/05 10:29:34;;;;;;;0.80;0.40;;;12.20;44.20;;;;;;5035111;28;20471;-83
2022/03/05 10:32:02;;;;;;;2.73;0.90;;;12.40;45.00;;;;;;5037867;28;20407;-85
2022/03/05 10:34:34;;;;;;;3.70;0.93;;;12.80;43.20;;;;;;5034328;28;20493;-85
2022/03/05 10:37:03;;;;;;;1.23;0.47;;;13.80;42.70;;;;;;5034066;28;20419;-86
2022/03/05 10:39:30;;;;;;;0.80;0.63;;;14.50;41.10;;;;;;5034455;28;20481;-86
2022/03/05 10:41:57;;;;;;;1.07;0.90;;;14.80;40.80;;;;;;5033900;28;20428;-85
2022/03/05 10:44:25;;;;;;;0.40;0.40;;;15.50;40.70;;;;;;5033929;28;20431;-84
2022/03/05 10:46:56;;;;;;;1.17;0.80;;;16.10;39.00;;;;;;5033591;28;20721;-84
2022/03/05 10:49:24;;;;;;;0.60;0.50;;;16.10;38.40;;;;;;5033581;28;20443;-81
2022/03/05 10:52:04;;;;;;;10.13;1.10;;;16.30;37.90;;;;;;5033838;28;20481;-83
2022/03/05 10:54:35;;;;;;;8.27;0.90;;;16.50;37.60;;;;;;5034251;28;20446;-84
2022/03/05 10:57:09;;;;;;;0.50;0.50;;;15.80;37.40;;;;;;5033480;28;20522;-85
2022/03/05 10:59:38;;;;;;;0.73;0.73;;;15.20;38.70;;;;;;5032734;28;20462;-80
2022/03/05 11:02:05;;;;;;;1.13;1.13;;;15.00;38.60;;;;;;5032607;28;20439;-80
2022/03/05 11:04:35;;;;;;;1.73;0.87;;;15.10;38.10;;;;;;5032824;28;20423;-80
2022/03/05 11:07:03;;;;;;;0.60;0.40;;;15.40;38.60;;;;;;5032275;28;20481;-79
2022/03/05 11:09:32;;;;;;;2.00;1.37;;;14.30;38.50;;;;;;5032478;28;20475;-79
2022/03/05 11:12:00;;;;;;;0.50;0.50;;;13.60;39.30;;;;;;5032942;28;20475;-80
2022/03/05 11:14:28;;;;;;;0.80;0.63;;;12.90;39.50;;;;;;5032736;28;20788;-79
2022/03/05 11:16:55;;;;;;;1.63;0.80;;;12.30;41.00;;;;;;5035768;28;20449;-81
2022/03/05 11:19:23;;;;;;;1.40;1.30;;;11.30;43.20;;;;;;5036177;28;20474;-84
2022/03/05 11:21:50;;;;;;;1.03;0.73;;;11.00;43.90;;;;;;5036263;28;20435;-85
2022/03/05 11:24:19;;;;;;;1.10;0.57;;;10.70;44.60;;;;;;5036090;28;20446;-84
2022/03/05 11:26:49;;;;;;;0.40;0.40;;;10.00;45.10;;;;;;5035851;28;20427;-85
2022/03/05 11:29:18;;;;;;;0.80;0.37;;;9.60;45.40;;;;;;5035952;28;20446;-85
2022/03/05 11:31:46;;;;;;;0.67;0.40;;;9.10;46.40;;;;;;5036638;28;20470;-88
2022/03/05 11:34:15;;;;;;;0.40;0.37;;;8.90;46.80;;;;;;5036364;28;20435;-88
2022/03/05 11:36:43;;;;;;;0.83;0.80;;;8.70;47.50;;;;;;5035929;28;20918;-86
2022/03/05 11:39:19;;;;;;;0.40;0.40;;;8.60;46.80;;;;;;5036068;28;20461;-88
2022/03/05 11:41:56;;;;;;;0.40;0.40;;;8.40;46.80;;;;;;5036311;28;20434;-88
2022/03/05 11:44:25;;;;;;;0.30;0.30;;;8.10;47.40;;;;;;5035763;28;20450;-86
2022/03/05 11:47:26;;;;;;;0.40;0.30;;;7.80;47.90;;;;;;5036025;28;20492;-86
2022/03/05 11:50:08;;;;;;;0.93;0.87;;;7.60;48.20;;;;;;5035872;28;20548;-86
2022/03/05 11:53:02;;;;;;;0.50;0.50;;;7.60;47.70;;;;;;5036100;28;20473;-86
2022/03/05 11:55:29;;;;;;;2.40;0.40;;;7.50;47.50;;;;;;5035861;28;20494;-88
2022/03/05 11:58:26;;;;;;;0.47;0.47;;;7.20;48.40;;;;;;5035834;28;20423;-88
2022/03/05 12:00:54;;;;;;;0.30;0.30;;;7.10;49.20;;;;;;5033836;28;20458;-87
2022/03/05 12:03:42;;;;;;;0.50;0.30;;;7.00;48.10;;;;;;5035415;28;20919;-86
2022/03/05 12:06:12;;;;;;;1.57;0.87;;;7.00;47.40;;;;;;5035861;28;20494;-86
2022/03/05 12:08:57;;;;;;;0.53;0.53;;;6.90;47.10;;;;;;5035291;28;20493;-89
2022/03/05 12:11:24;;;;;;;1.03;0.93;;;6.90;47.10;;;;;;5035620;28;20475;-86
2022/03/05 12:13:55;;;;;;;1.90;0.50;;;6.70;46.80;;;;;;5035648;28;20427;-86
2022/03/05 12:16:23;;;;;;;0.30;0.30;;;6.60;47.90;;;;;;5035524;28;20441;-84
2022/03/05 12:18:50;;;;;;;0.40;0.40;;;6.50;48.10;;;;;;5035393;28;20455;-86
2022/03/05 12:21:27;;;;;;;0.60;0.33;;;6.50;48.90;;;;;;5036030;28;20419;-89
2022/03/05 12:24:02;;;;;;;0.30;0.30;;;6.50;49.00;;;;;;5035594;28;20899;-87
2022/03/05 12:26:40;;;;;;;0.47;0.47;;;6.50;48.90;;;;;;5035312;28;20438;-83
2022/03/05 12:29:09;;;;;;;0.30;0.20;;;6.40;47.80;;;;;;5035118;28;20476;-85
2022/03/05 12:31:40;;;;;;;0.73;0.53;;;6.30;48.60;;;;;;5034770;28;20842;-87
2022/03/05 12:34:07;;;;;;;0.30;0.30;;;6.20;48.30;;;;;;5035396;28;20776;-84
2022/03/05 12:36:34;;;;;;;0.30;0.30;;;6.10;48.20;;;;;;5035597;28;20447;-84
2022/03/05 12:39:02;;;;;;;0.50;0.50;;;6.10;48.50;;;;;;5035248;28;20474;-82
2022/03/05 12:41:29;;;;;;;1.43;0.60;;;6.20;47.70;;;;;;5035013;28;20426;-82
2022/03/05 12:43:57;;;;;;;0.50;0.50;;;6.10;47.70;;;;;;5036117;28;20526;-82
2022/03/05 12:46:25;;;;;;;0.80;0.40;;;6.10;47.30;;;;;;5035855;28;20447;-85
2022/03/05 12:48:52;;;;;;;0.40;0.40;;;5.90;47.40;;;;;;5035031;28;20470;-84
2022/03/05 12:51:21;;;;;;;0.30;0.30;;;5.70;48.60;;;;;;5034983;28;20471;-84
2022/03/05 12:53:58;;;;;;;0.30;0.30;;;5.50;49.30;;;;;;5034947;28;20435;-83
2022/03/05 12:56:26;;;;;;;0.30;0.27;;;5.50;49.60;;;;;;5035893;28;20504;-82
2022/03/05 12:58:57;;;;;;;0.30;0.30;;;5.50;49.80;;;;;;5035052;28;20474;-83
2022/03/05 13:01:26;;;;;;;0.30;0.30;;;5.60;50.50;;;;;;5034899;28;20492;-81
2022/03/05 13:03:55;;;;;;;0.30;0.30;;;5.60;50.50;;;;;;5034595;28;20526;-82